createdAt,value
2023-09-27T00:01:37.895Z,16
2023-09-27T00:04:08.805Z,12
2023-09-27T00:06:40.085Z,16
2023-09-27T00:09:10.662Z,12
2023-09-27T00:11:41.154Z,13
2023-09-27T00:14:11.818Z,12
2023-09-27T00:16:42.311Z,16
2023-09-27T00:19:12.843Z,11
2023-09-27T00:21:43.427Z,12
2023-09-27T00:24:14.188Z,12
2023-09-27T00:26:45.564Z,8
2023-09-27T00:29:16.887Z,12
2023-09-27T00:31:48.249Z,16
2023-09-27T00:34:19.267Z,12
2023-09-27T00:36:50.021Z,16
2023-09-27T00:39:21.606Z,8
2023-09-27T00:41:50.806Z,12
2023-09-27T00:44:21.528Z,11
2023-09-27T00:46:52.060Z,12
2023-09-27T00:49:22.821Z,12
2023-09-27T00:51:53.344Z,11
2023-09-27T00:54:24.510Z,12
2023-09-27T00:56:55.815Z,12
2023-09-27T00:59:26.550Z,11
2023-09-27T01:01:58.649Z,11
2023-09-27T01:04:29.478Z,8
2023-09-27T01:07:00.408Z,8
2023-09-27T01:09:31.197Z,8
2023-09-27T01:12:02.262Z,8
2023-09-27T01:14:32.921Z,12
2023-09-27T01:17:04.349Z,16
2023-09-27T01:19:35.272Z,8
2023-09-27T01:22:05.520Z,8
2023-09-27T01:24:37.532Z,12
2023-09-27T01:27:07.474Z,9
2023-09-27T01:29:38.381Z,11
2023-09-27T01:32:09.105Z,12
2023-09-27T01:34:39.944Z,8
2023-09-27T01:37:08.838Z,9
2023-09-27T01:39:39.316Z,12
2023-09-27T01:42:09.863Z,8
2023-09-27T01:44:40.686Z,11
2023-09-27T01:47:11.911Z,8
2023-09-27T01:49:45.347Z,12
2023-09-27T01:52:14.589Z,9
2023-09-27T01:54:45.422Z,12
2023-09-27T01:57:16.752Z,12
2023-09-27T01:59:45.848Z,9
2023-09-27T02:02:16.701Z,8
2023-09-27T02:04:47.689Z,11
2023-09-27T02:07:18.593Z,11
2023-09-27T02:09:49.591Z,8
2023-09-27T02:12:20.778Z,11
2023-09-27T02:14:49.902Z,12
2023-09-27T02:17:20.289Z,8
2023-09-27T02:19:51.214Z,12
2023-09-27T02:22:23.629Z,12
2023-09-27T02:24:54.218Z,12
2023-09-27T02:27:25.219Z,8
2023-09-27T02:29:55.845Z,15
2023-09-27T02:32:26.364Z,8
2023-09-27T02:34:56.912Z,8
2023-09-27T02:37:27.192Z,11
2023-09-27T02:39:57.637Z,8
2023-09-27T02:42:28.605Z,12
2023-09-27T02:44:59.913Z,12
2023-09-27T02:47:31.624Z,8
2023-09-27T02:50:02.011Z,8
2023-09-27T02:52:33.195Z,12
2023-09-27T02:55:04.026Z,8
2023-09-27T02:57:33.524Z,11
2023-09-27T03:00:04.054Z,12
2023-09-27T03:02:34.663Z,8
2023-09-27T03:05:05.224Z,12
2023-09-27T03:07:36.416Z,12
2023-09-27T03:10:06.913Z,12
2023-09-27T03:12:37.427Z,11
2023-09-27T03:15:09.399Z,8
2023-09-27T03:17:39.391Z,8
2023-09-27T03:20:11.005Z,12
2023-09-27T03:22:42.135Z,8
2023-09-27T03:25:13.339Z,9
2023-09-27T03:27:44.681Z,8
2023-09-27T03:30:15.254Z,12
2023-09-27T03:32:45.721Z,12
2023-09-27T03:35:16.990Z,10
2023-09-27T03:37:47.568Z,12
2023-09-27T03:40:17.173Z,12
2023-09-27T03:42:47.980Z,12
2023-09-27T03:45:18.509Z,16
2023-09-27T03:47:49.433Z,12
2023-09-27T03:50:20.438Z,12
2023-09-27T03:52:50.922Z,15
2023-09-27T03:55:21.541Z,12
2023-09-27T03:57:52.325Z,12
2023-09-27T04:00:23.982Z,14
2023-09-27T04:02:54.404Z,16
2023-09-27T04:05:24.679Z,12
2023-09-27T04:07:55.058Z,15
2023-09-27T04:10:24.003Z,16
2023-09-27T04:12:54.490Z,16
2023-09-27T04:15:23.778Z,13
2023-09-27T04:17:54.246Z,15
2023-09-27T04:20:23.436Z,20
2023-09-27T04:22:54.174Z,12
2023-09-27T04:25:23.536Z,12
2023-09-27T04:27:55.089Z,16
2023-09-27T04:30:24.046Z,13
2023-09-27T04:32:54.867Z,13
2023-09-27T04:35:25.806Z,24
2023-09-27T04:37:56.491Z,31
2023-09-27T04:40:27.236Z,48
2023-09-27T04:42:59.207Z,48
2023-09-27T04:45:29.877Z,27
2023-09-27T04:48:00.189Z,33
2023-09-27T04:50:31.124Z,28
2023-09-27T04:53:01.581Z,24
2023-09-27T04:55:32.108Z,20
2023-09-27T04:58:02.527Z,27
2023-09-27T05:00:31.371Z,24
2023-09-27T05:03:01.694Z,20
2023-09-27T05:05:32.620Z,16
2023-09-27T05:08:03.079Z,24
2023-09-27T05:10:33.693Z,25
2023-09-27T05:13:04.269Z,20
2023-09-27T05:15:35.057Z,20
2023-09-27T05:18:06.102Z,21
2023-09-27T05:20:36.352Z,16
2023-09-27T05:23:07.094Z,18
2023-09-27T05:25:38.949Z,16
2023-09-27T05:28:09.803Z,20
2023-09-27T05:30:40.421Z,16
2023-09-27T05:33:10.998Z,12
2023-09-27T05:35:39.797Z,12
2023-09-27T05:38:11.119Z,20
2023-09-27T05:40:41.599Z,28
2023-09-27T05:43:12.915Z,26
2023-09-27T05:45:43.805Z,28
2023-09-27T05:48:17.316Z,28
2023-09-27T05:50:47.758Z,28
2023-09-27T05:53:18.375Z,24
2023-09-27T05:55:49.198Z,24
2023-09-27T05:58:19.687Z,24
2023-09-27T06:00:49.999Z,28
2023-09-27T06:03:21.027Z,21
2023-09-27T06:05:51.438Z,26
2023-09-27T06:08:21.875Z,25
2023-09-27T06:10:52.790Z,24
2023-09-27T06:13:24.140Z,28
2023-09-27T06:15:55.146Z,24
2023-09-27T06:18:26.222Z,20
2023-09-27T06:20:56.684Z,20
2023-09-27T06:23:27.278Z,24
2023-09-27T06:25:57.717Z,24
2023-09-27T06:28:28.271Z,19
2023-09-27T06:30:59.083Z,21
2023-09-27T06:33:29.517Z,20
2023-09-27T06:35:59.853Z,21
2023-09-27T06:38:30.567Z,20
2023-09-27T06:41:03.657Z,15
2023-09-27T06:43:34.515Z,20
2023-09-27T06:46:05.509Z,20
2023-09-27T06:48:36.023Z,57
2023-09-27T06:51:06.355Z,39
2023-09-27T06:53:36.731Z,40
2023-09-27T06:56:07.234Z,36
2023-09-27T06:58:38.179Z,20
2023-09-27T07:01:09.480Z,16
2023-09-27T07:03:40.616Z,17
2023-09-27T07:06:11.387Z,12
2023-09-27T07:08:42.249Z,12
2023-09-27T07:11:12.709Z,12
2023-09-27T07:13:43.525Z,12
2023-09-27T07:16:14.487Z,12
2023-09-27T07:18:45.182Z,12
2023-09-27T07:21:15.940Z,12
2023-09-27T07:23:46.156Z,11
2023-09-27T07:26:16.972Z,12
2023-09-27T07:28:47.614Z,12
2023-09-27T07:31:18.916Z,12
2023-09-27T07:33:49.171Z,12
2023-09-27T07:36:19.671Z,15
2023-09-27T07:38:50.219Z,15
2023-09-27T07:41:20.818Z,12
2023-09-27T07:43:53.260Z,10
2023-09-27T07:46:23.822Z,14
2023-09-27T07:48:55.017Z,37
2023-09-27T07:51:26.779Z,14
2023-09-27T07:53:57.278Z,35
2023-09-27T07:56:28.194Z,20
2023-09-27T07:58:59.248Z,28
2023-09-27T08:01:30.034Z,16
2023-09-27T08:04:00.527Z,20
2023-09-27T08:06:32.942Z,21
2023-09-27T08:09:03.541Z,22
2023-09-27T08:11:35.457Z,12
2023-09-27T08:14:05.402Z,16
2023-09-27T08:16:36.280Z,16
2023-09-27T08:19:07.414Z,12
2023-09-27T08:21:37.752Z,12
2023-09-27T08:24:08.488Z,13
2023-09-27T08:26:39.580Z,12
2023-09-27T08:29:10.089Z,12
2023-09-27T08:31:41.250Z,12
2023-09-27T08:34:12.009Z,12
2023-09-27T08:36:42.908Z,14
2023-09-27T08:39:13.843Z,12
2023-09-27T08:41:44.809Z,14
2023-09-27T08:44:15.933Z,12
2023-09-27T08:46:46.924Z,12
2023-09-27T08:49:18.022Z,13
2023-09-27T08:51:48.798Z,12
2023-09-27T08:54:19.323Z,12
2023-09-27T08:56:49.971Z,19
2023-09-27T08:59:20.811Z,14
2023-09-27T09:01:51.199Z,13
2023-09-27T09:04:22.279Z,12
2023-09-27T09:06:52.693Z,12
2023-09-27T09:09:21.733Z,12
2023-09-27T09:11:52.321Z,15
2023-09-27T09:14:23.004Z,17
2023-09-27T09:16:53.581Z,17
2023-09-27T09:19:37.398Z,16
2023-09-27T09:21:55.707Z,12
2023-09-27T09:24:26.857Z,14
2023-09-27T09:26:57.598Z,20
2023-09-27T09:29:28.907Z,15
2023-09-27T09:31:59.144Z,17
2023-09-27T09:34:30.370Z,20
2023-09-27T09:37:02.012Z,14
2023-09-27T09:39:33.228Z,14
2023-09-27T09:42:03.526Z,16
2023-09-27T09:44:37.841Z,16
2023-09-27T09:47:09.190Z,16
2023-09-27T09:49:40.277Z,23
2023-09-27T09:52:11.254Z,16
2023-09-27T09:54:42.205Z,15
2023-09-27T09:57:19.061Z,15
2023-09-27T09:59:43.711Z,16
2023-09-27T10:02:13.913Z,20
2023-09-27T10:04:44.781Z,16
2023-09-27T10:07:15.463Z,20
2023-09-27T10:09:46.130Z,15
2023-09-27T10:12:17.327Z,16
2023-09-27T10:14:48.212Z,18
2023-09-27T10:17:18.799Z,20
2023-09-27T10:19:49.391Z,16
2023-09-27T10:22:20.547Z,20
2023-09-27T10:24:51.213Z,16
2023-09-27T10:27:22.194Z,20
2023-09-27T10:29:52.781Z,16
2023-09-27T10:32:23.593Z,14
2023-09-27T10:34:53.890Z,24
2023-09-27T10:37:24.161Z,20
2023-09-27T10:39:55.164Z,18
2023-09-27T10:42:25.832Z,20
2023-09-27T10:44:56.824Z,20
2023-09-27T10:47:28.095Z,16
2023-09-27T10:49:58.778Z,16
2023-09-27T10:52:29.388Z,18
2023-09-27T10:55:00.204Z,20
2023-09-27T10:57:34.735Z,16
2023-09-27T11:00:05.732Z,18
2023-09-27T11:02:36.879Z,16
2023-09-27T11:05:07.724Z,12
2023-09-27T11:07:38.609Z,16
2023-09-27T11:10:09.346Z,20
2023-09-27T11:12:44.042Z,18
2023-09-27T11:15:14.784Z,15
2023-09-27T11:17:45.387Z,17
2023-09-27T11:20:15.864Z,17
2023-09-27T11:22:46.980Z,16
2023-09-27T11:25:21.054Z,14
2023-09-27T11:27:51.202Z,16
2023-09-27T11:30:20.234Z,19
2023-09-27T11:32:51.543Z,20
2023-09-27T11:35:20.567Z,20
2023-09-27T11:37:51.873Z,16
2023-09-27T11:40:22.764Z,20
2023-09-27T11:42:53.289Z,18
2023-09-27T11:45:23.999Z,22
2023-09-27T11:47:55.071Z,18
2023-09-27T11:50:25.863Z,19
2023-09-27T11:52:56.208Z,19
2023-09-27T11:55:26.864Z,20
2023-09-27T11:57:55.584Z,17
2023-09-27T12:00:24.392Z,20
2023-09-27T12:02:57.564Z,20
2023-09-27T12:05:25.418Z,17
2023-09-27T12:07:55.295Z,24
2023-09-27T12:10:26.311Z,23
2023-09-27T12:12:57.046Z,20
2023-09-27T12:15:28.214Z,22
2023-09-27T12:18:01.922Z,20
2023-09-27T12:23:03.632Z,20
2023-09-27T12:25:34.626Z,16
2023-09-27T12:28:05.599Z,16
2023-09-27T12:30:34.729Z,19
2023-09-27T12:33:06.528Z,24
2023-09-27T12:35:37.649Z,20
2023-09-27T12:38:12.006Z,22
2023-09-27T12:40:43.070Z,16
2023-09-27T12:43:14.284Z,20
2023-09-27T12:45:48.407Z,19
2023-09-27T12:48:19.283Z,18
2023-09-27T12:50:50.255Z,24
2023-09-27T12:53:21.235Z,20
2023-09-27T12:55:51.928Z,23
2023-09-27T13:01:01.824Z,24
2023-09-27T13:03:33.003Z,26
2023-09-27T13:06:03.805Z,28
2023-09-27T13:08:34.795Z,20
2023-09-27T13:11:05.868Z,22
2023-09-27T13:13:36.774Z,23
2023-09-27T13:16:09.305Z,24
2023-09-27T13:18:40.354Z,24
2023-09-27T13:21:11.268Z,28
2023-09-27T13:23:41.739Z,20
2023-09-27T13:26:12.619Z,24
2023-09-27T13:28:43.467Z,24
2023-09-27T13:31:14.308Z,20
2023-09-27T13:33:48.965Z,20
2023-09-27T13:36:16.541Z,23
2023-09-27T13:38:47.573Z,20
2023-09-27T13:41:18.756Z,22
2023-09-27T13:43:49.513Z,22
2023-09-27T13:46:20.789Z,20
2023-09-27T13:48:51.710Z,26
2023-09-27T13:51:22.342Z,28
2023-09-27T13:53:53.553Z,20
2023-09-27T13:56:24.360Z,28
2023-09-27T13:58:55.481Z,20
2023-09-27T14:01:26.108Z,20
2023-09-27T14:03:57.261Z,26
2023-09-27T14:06:28.604Z,25
2023-09-27T14:08:59.618Z,31
2023-09-27T14:11:30.328Z,28
2023-09-27T14:14:00.457Z,24
2023-09-27T14:16:31.335Z,16
2023-09-27T14:19:02.130Z,24
2023-09-27T14:21:33.049Z,22
2023-09-27T14:24:04.057Z,21
2023-09-27T14:26:34.583Z,20
2023-09-27T14:29:03.173Z,25
2023-09-27T14:31:34.215Z,22
2023-09-27T14:34:05.516Z,20
2023-09-27T14:36:36.255Z,20
2023-09-27T14:39:07.315Z,24
2023-09-27T14:41:38.554Z,20
2023-09-27T14:44:09.512Z,27
2023-09-27T14:46:40.592Z,24
2023-09-27T14:49:11.243Z,28
2023-09-27T14:51:42.405Z,24
2023-09-27T14:54:13.085Z,38
2023-09-27T14:56:42.062Z,22
2023-09-27T14:59:12.719Z,16
2023-09-27T15:01:44.091Z,32
2023-09-27T15:04:14.954Z,24
2023-09-27T15:06:45.985Z,20
2023-09-27T15:09:16.874Z,16
2023-09-27T15:11:47.975Z,20
2023-09-27T15:14:18.749Z,20
2023-09-27T15:16:47.775Z,22
2023-09-27T15:19:18.476Z,20
2023-09-27T15:21:49.422Z,19
2023-09-27T15:24:18.404Z,28
2023-09-27T15:26:47.378Z,26
2023-09-27T15:29:18.565Z,40
2023-09-27T15:31:50.404Z,40
2023-09-27T15:34:21.602Z,39
2023-09-27T15:36:52.595Z,36
2023-09-27T15:39:23.679Z,32
2023-09-27T15:41:55.557Z,36
2023-09-27T15:44:26.350Z,28
2023-09-27T15:46:57.434Z,20
2023-09-27T15:49:28.267Z,21
2023-09-27T15:51:59.111Z,20
2023-09-27T15:54:30.101Z,19
2023-09-27T15:57:01.113Z,20
2023-09-27T15:59:31.902Z,21
2023-09-27T16:02:02.996Z,24
2023-09-27T16:04:42.109Z,24
2023-09-27T16:07:04.515Z,20
2023-09-27T16:09:35.440Z,22
2023-09-27T16:12:04.232Z,24
2023-09-27T16:14:34.736Z,24
2023-09-27T16:17:05.497Z,46
2023-09-27T16:19:35.871Z,26
2023-09-27T16:22:06.210Z,28
2023-09-27T16:24:36.806Z,28
2023-09-27T16:27:07.222Z,21
2023-09-27T16:29:37.469Z,28
2023-09-27T16:32:07.881Z,24
2023-09-27T16:34:38.348Z,24
2023-09-27T16:37:08.729Z,19
2023-09-27T16:39:39.118Z,23
2023-09-27T16:42:09.691Z,24
2023-09-27T16:44:39.848Z,35
2023-09-27T16:47:10.212Z,38
2023-09-27T16:49:40.858Z,28
2023-09-27T16:52:10.936Z,32
2023-09-27T16:54:41.063Z,28
2023-09-27T16:57:11.250Z,32
2023-09-27T16:59:41.836Z,29
2023-09-27T17:02:12.885Z,28
2023-09-27T17:04:43.883Z,32
2023-09-27T17:07:14.632Z,28
2023-09-27T17:09:43.168Z,28
2023-09-27T17:12:13.470Z,32
2023-09-27T17:14:44.184Z,29
2023-09-27T17:17:14.484Z,29
2023-09-27T17:19:44.845Z,28
2023-09-27T17:22:14.001Z,28
2023-09-27T17:24:44.793Z,28
2023-09-27T17:27:16.094Z,28
2023-09-27T17:29:46.237Z,29
2023-09-27T17:32:16.310Z,28
2023-09-27T17:34:46.865Z,31
2023-09-27T17:37:17.145Z,28
2023-09-27T17:39:47.973Z,28
2023-09-27T17:42:17.027Z,30
2023-09-27T17:44:49.018Z,28
2023-09-27T17:47:17.879Z,28
2023-09-27T17:49:49.358Z,32
2023-09-27T17:52:19.328Z,32
2023-09-27T17:54:50.510Z,32
2023-09-27T17:57:21.613Z,33
2023-09-27T17:59:52.228Z,34
2023-09-27T18:02:26.344Z,36
2023-09-27T18:04:56.615Z,34
2023-09-27T18:07:26.889Z,33
2023-09-27T18:09:57.684Z,36
2023-09-27T18:12:28.477Z,32
2023-09-27T18:14:59.402Z,28
2023-09-27T18:17:29.189Z,32
2023-09-27T18:20:00.475Z,28
2023-09-27T18:22:29.021Z,31
2023-09-27T18:24:59.769Z,33
2023-09-27T18:27:30.447Z,34
2023-09-27T18:30:02.474Z,31
2023-09-27T18:32:30.136Z,32
2023-09-27T18:35:00.347Z,36
2023-09-27T18:37:31.624Z,32
2023-09-27T18:40:02.034Z,33
2023-09-27T18:42:32.185Z,35
2023-09-27T18:45:03.027Z,32
2023-09-27T18:47:33.941Z,32
2023-09-27T18:50:04.296Z,33
2023-09-27T18:52:34.331Z,36
2023-09-27T18:55:03.157Z,36
2023-09-27T18:57:31.924Z,32
2023-09-27T19:00:02.029Z,32
2023-09-27T19:02:33.863Z,32
2023-09-27T19:05:04.457Z,32
2023-09-27T19:07:35.282Z,36
2023-09-27T19:10:05.547Z,36
2023-09-27T19:12:35.701Z,32
2023-09-27T19:15:06.690Z,36
2023-09-27T19:17:36.966Z,32
2023-09-27T19:20:05.949Z,33
2023-09-27T19:22:34.754Z,32
2023-09-27T19:25:04.614Z,32
2023-09-27T19:27:35.327Z,32
2023-09-27T19:30:06.171Z,32
2023-09-27T19:32:36.493Z,29
2023-09-27T19:35:07.367Z,34
2023-09-27T19:37:37.849Z,32
2023-09-27T19:40:08.296Z,32
2023-09-27T19:42:39.150Z,28
2023-09-27T19:45:10.230Z,32
2023-09-27T19:47:40.801Z,33
2023-09-27T19:50:11.820Z,39
2023-09-27T19:52:42.812Z,40
2023-09-27T19:55:12.916Z,40
2023-09-27T19:57:43.744Z,39
2023-09-27T20:00:17.180Z,38
2023-09-27T20:02:45.575Z,36
2023-09-27T20:05:16.724Z,38
2023-09-27T20:07:47.695Z,40
2023-09-27T20:10:18.766Z,40
2023-09-27T20:12:49.133Z,39
2023-09-27T20:15:20.016Z,36
2023-09-27T20:17:50.874Z,33
2023-09-27T20:20:22.333Z,35
2023-09-27T20:22:53.176Z,32
2023-09-27T20:25:24.878Z,30
2023-09-27T20:27:56.150Z,32
2023-09-27T20:30:27.093Z,32
2023-09-27T20:32:55.946Z,32
2023-09-27T20:35:26.644Z,32
2023-09-27T20:37:58.457Z,32
2023-09-27T20:40:29.127Z,32
2023-09-27T20:42:59.528Z,31
2023-09-27T20:45:30.197Z,32
2023-09-27T20:47:59.060Z,34
2023-09-27T20:50:29.982Z,32
2023-09-27T20:53:00.909Z,28
2023-09-27T20:55:32.042Z,32
2023-09-27T20:58:02.979Z,32
2023-09-27T21:00:33.718Z,32
2023-09-27T21:03:04.294Z,32
2023-09-27T21:05:34.529Z,31
2023-09-27T21:08:04.490Z,32
2023-09-27T21:10:34.748Z,33
2023-09-27T21:13:05.014Z,32
2023-09-27T21:15:36.619Z,32
2023-09-27T21:18:06.814Z,36
2023-09-27T21:20:37.815Z,32
2023-09-27T21:23:08.659Z,35
2023-09-27T21:25:39.477Z,36
2023-09-27T21:28:10.304Z,32
2023-09-27T21:30:40.990Z,35
2023-09-27T21:33:11.975Z,36
2023-09-27T21:35:42.547Z,36
2023-09-27T21:38:13.961Z,32
2023-09-27T21:40:44.999Z,36
2023-09-27T21:43:15.797Z,46
2023-09-27T21:45:47.425Z,36
2023-09-27T21:48:17.652Z,36
2023-09-27T21:50:48.568Z,36
2023-09-27T21:53:19.449Z,40
2023-09-27T21:55:48.573Z,32
2023-09-27T21:58:17.852Z,36
2023-09-27T22:00:48.821Z,32
2023-09-27T22:03:19.591Z,38
2023-09-27T22:05:50.524Z,32
2023-09-27T22:08:21.418Z,39
2023-09-27T22:10:52.697Z,36
2023-09-27T22:13:23.511Z,43
2023-09-27T22:15:55.363Z,32
2023-09-27T22:18:24.122Z,36
2023-09-27T22:20:54.973Z,35
2023-09-27T22:23:26.119Z,36
2023-09-27T22:25:55.284Z,32
2023-09-27T22:28:26.190Z,32
2023-09-27T22:30:56.923Z,32
2023-09-27T22:33:25.657Z,32
2023-09-27T22:35:56.398Z,32
2023-09-27T22:38:27.345Z,36
2023-09-27T22:40:57.709Z,32
2023-09-27T22:43:28.859Z,32
2023-09-27T22:45:59.341Z,32
2023-09-27T22:48:28.283Z,35
2023-09-27T22:50:59.565Z,36
2023-09-27T22:53:29.895Z,32
2023-09-27T22:56:00.873Z,32
2023-09-27T22:58:31.917Z,32
2023-09-27T23:01:02.671Z,31
2023-09-27T23:03:33.773Z,28
2023-09-27T23:06:04.991Z,35
2023-09-27T23:08:36.094Z,36
2023-09-27T23:11:07.190Z,28
2023-09-27T23:13:38.060Z,28
2023-09-27T23:16:09.162Z,36
2023-09-27T23:18:38.198Z,33
2023-09-27T23:21:08.618Z,33
2023-09-27T23:23:39.520Z,36
2023-09-27T23:26:08.591Z,32
2023-09-27T23:28:39.587Z,31
2023-09-27T23:31:10.386Z,28
2023-09-27T23:33:40.830Z,32
2023-09-27T23:36:11.180Z,28
2023-09-27T23:38:41.823Z,29
2023-09-27T23:41:13.043Z,29
2023-09-27T23:43:43.967Z,31
2023-09-27T23:46:15.507Z,28
2023-09-27T23:48:46.718Z,32
2023-09-27T23:51:17.240Z,31
2023-09-27T23:53:47.694Z,32
2023-09-27T23:56:18.473Z,32
2023-09-27T23:58:47.690Z,32
